Time;durP1;ratioP1;P1;durP2;ratioP2;P2;SDS_P1;SDS_P2;PMS_P1;PMS_P2;Temp;Humidity;BMP_temperature;BMP_pressure;BME280_temperature;BME280_humidity;BME280_pressure;Samples;Min_cycle;Max_cycle;Signal;HPM_P1;HPM_P2
2023/09/07 00:01:42;;;;;;;;;;;20.30;99.90;;;;;;5072711;28;19956;-41
2023/09/07 00:04:07;;;;;;;;;;;20.20;99.90;;;;;;5073278;28;20011;-46
2023/09/07 00:06:34;;;;;;;;;;;20.20;99.90;;;;;;5072711;28;19920;-42
2023/09/07 00:09:00;;;;;;;;;;;20.20;99.90;;;;;;5073165;28;19916;-43
2023/09/07 00:11:25;;;;;;;;;;;20.20;99.90;;;;;;5072913;28;19917;-42
2023/09/07 00:13:51;;;;;;;;;;;20.20;99.90;;;;;;5073008;28;19912;-42
2023/09/07 00:16:16;;;;;;;;;;;20.10;99.90;;;;;;5072947;28;19913;-42
2023/09/07 00:18:42;;;;;;;;;;;20.20;99.90;;;;;;5073077;28;19908;-41
2023/09/07 00:21:07;;;;;;;;;;;20.10;99.90;;;;;;5073062;28;20375;-41
2023/09/07 00:23:33;;;;;;;;;;;20.10;99.90;;;;;;5073066;28;19909;-42
2023/09/07 00:25:58;;;;;;;;;;;20.10;99.90;;;;;;5072648;28;19913;-44
2023/09/07 00:28:23;;;;;;;;;;;20.00;99.90;;;;;;5072891;28;19915;-43
2023/09/07 00:30:49;;;;;;;;;;;20.00;99.90;;;;;;5072622;28;20429;-42
2023/09/07 00:33:14;;;;;;;;;;;20.00;99.90;;;;;;5072993;28;19908;-43
2023/09/07 00:35:40;;;;;;;;;;;20.00;99.90;;;;;;5072874;28;19915;-42
2023/09/07 00:38:05;;;;;;;;;;;19.90;99.90;;;;;;5072785;28;20322;-45
2023/09/07 00:40:31;;;;;;;;;;;19.90;99.90;;;;;;5072906;28;19908;-42
2023/09/07 00:42:58;;;;;;;;;;;19.90;99.90;;;;;;5072681;28;20396;-42
2023/09/07 00:45:24;;;;;;;;;;;19.90;99.90;;;;;;5072511;28;19920;-42
2023/09/07 00:47:50;;;;;;;;;;;19.80;99.90;;;;;;5072443;28;19999;-45
2023/09/07 00:50:16;;;;;;;;;;;19.80;99.90;;;;;;5072732;28;19916;-44
2023/09/07 00:52:42;;;;;;;;;;;19.70;99.90;;;;;;5072688;28;19916;-44
2023/09/07 00:55:08;;;;;;;;;;;19.70;99.90;;;;;;5072610;28;19908;-43
2023/09/07 00:57:34;;;;;;;;;;;19.60;99.90;;;;;;5072733;28;19914;-42
2023/09/07 00:59:59;;;;;;;;;;;19.50;99.90;;;;;;5070398;28;20006;-45
2023/09/07 01:02:25;;;;;;;;;;;19.40;99.90;;;;;;5055796;28;20279;-42
2023/09/07 01:04:51;;;;;;;;;;;19.40;99.90;;;;;;5072445;28;19908;-41
2023/09/07 01:07:18;;;;;;;;;;;19.40;99.90;;;;;;5072500;28;19918;-43
2023/09/07 01:09:44;;;;;;;;;;;19.40;99.90;;;;;;5072469;28;20315;-43
2023/09/07 01:12:16;;;;;;;;;;;19.40;99.90;;;;;;5072867;28;19912;-42
2023/09/07 01:14:41;;;;;;;;;;;19.40;99.90;;;;;;5069792;28;20433;-44
2023/09/07 01:17:08;;;;;;;;;;;19.30;99.90;;;;;;5068534;28;19920;-42
2023/09/07 01:19:34;;;;;;;;;;;19.30;99.90;;;;;;5056348;28;20102;-41
2023/09/07 01:22:00;;;;;;;;;;;19.40;99.90;;;;;;5056306;28;19915;-44
2023/09/07 01:24:26;;;;;;;;;;;19.30;99.90;;;;;;5056124;28;19913;-42
2023/09/07 01:26:51;;;;;;;;;;;19.30;99.90;;;;;;5074879;28;19936;-41
2023/09/07 01:29:17;;;;;;;;;;;19.30;99.90;;;;;;5076312;28;19920;-42
2023/09/07 01:31:43;;;;;;;;;;;19.30;99.90;;;;;;5075795;28;20418;-42
2023/09/07 01:34:08;;;;;;;;;;;19.20;99.90;;;;;;5076151;28;19908;-43
2023/09/07 01:36:34;;;;;;;;;;;19.20;99.90;;;;;;5076139;28;20018;-42
2023/09/07 01:39:00;;;;;;;;;;;19.20;99.90;;;;;;5075790;28;19912;-42
2023/09/07 01:41:26;;;;;;;;;;;19.10;99.90;;;;;;5075995;28;19916;-40
2023/09/07 01:43:52;;;;;;;;;;;19.10;99.90;;;;;;5075718;28;20025;-42
2023/09/07 01:46:17;;;;;;;;;;;19.10;99.90;;;;;;5075740;28;20353;-45
2023/09/07 01:48:43;;;;;;;;;;;19.10;99.90;;;;;;5075905;28;19908;-41
2023/09/07 01:51:08;;;;;;;;;;;19.10;99.90;;;;;;5075714;28;19917;-42
2023/09/07 01:53:34;;;;;;;;;;;19.10;99.90;;;;;;5075784;28;19931;-42
2023/09/07 01:55:59;;;;;;;;;;;19.00;99.90;;;;;;5075787;28;20283;-42
2023/09/07 01:58:25;;;;;;;;;;;19.10;99.90;;;;;;5075693;28;19916;-44
2023/09/07 02:00:52;;;;;;;;;;;19.00;99.90;;;;;;5075698;28;19909;-42
2023/09/07 02:03:17;;;;;;;;;;;19.00;99.90;;;;;;5075244;28;20398;-44
2023/09/07 02:05:45;;;;;;;;;;;19.00;99.90;;;;;;5075604;28;19912;-42
2023/09/07 02:08:10;;;;;;;;;;;18.90;99.90;;;;;;5075419;28;19962;-43
2023/09/07 02:10:36;;;;;;;;;;;18.90;99.90;;;;;;5075405;28;19916;-41
2023/09/07 02:13:02;;;;;;;;;;;18.90;99.90;;;;;;5075426;28;19915;-45
2023/09/07 02:15:27;;;;;;;;;;;18.90;99.90;;;;;;5075483;28;19912;-46
2023/09/07 02:17:53;;;;;;;;;;;18.90;99.90;;;;;;5075354;28;19977;-42
2023/09/07 02:20:20;;;;;;;;;;;18.90;99.90;;;;;;5075126;28;19916;-41
2023/09/07 02:22:45;;;;;;;;;;;18.90;99.90;;;;;;5074779;28;19996;-41
2023/09/07 02:25:10;;;;;;;;;;;18.80;99.90;;;;;;5074644;28;20018;-40
2023/09/07 02:27:36;;;;;;;;;;;18.80;99.90;;;;;;5075353;28;19909;-42
2023/09/07 02:30:02;;;;;;;;;;;18.80;99.90;;;;;;5075034;28;20368;-41
2023/09/07 02:32:28;;;;;;;;;;;18.70;99.90;;;;;;5074914;28;20386;-44
2023/09/07 02:34:53;;;;;;;;;;;18.70;99.90;;;;;;5074772;28;19919;-44
2023/09/07 02:37:19;;;;;;;;;;;18.70;99.90;;;;;;5074910;28;20351;-42
2023/09/07 02:39:45;;;;;;;;;;;18.70;99.90;;;;;;5074972;28;19999;-42
2023/09/07 02:42:10;;;;;;;;;;;18.70;99.90;;;;;;5074792;28;20348;-40
2023/09/07 02:44:35;;;;;;;;;;;18.60;99.90;;;;;;5074543;28;19920;-44
2023/09/07 02:47:01;;;;;;;;;;;18.60;99.90;;;;;;5074834;28;20421;-42
2023/09/07 02:49:27;;;;;;;;;;;18.60;99.90;;;;;;5074857;28;19908;-42
2023/09/07 02:51:52;;;;;;;;;;;18.50;99.90;;;;;;5074639;28;19912;-41
2023/09/07 02:54:18;;;;;;;;;;;18.50;99.90;;;;;;5074754;28;19908;-41
2023/09/07 02:56:43;;;;;;;;;;;18.50;99.90;;;;;;5074671;28;19909;-41
2023/09/07 02:59:09;;;;;;;;;;;18.50;99.90;;;;;;5074628;28;19917;-42
2023/09/07 03:01:34;;;;;;;;;;;18.40;99.90;;;;;;5074599;28;20287;-41
2023/09/07 03:04:00;;;;;;;;;;;18.50;99.90;;;;;;5074415;28;19954;-40
2023/09/07 03:06:25;;;;;;;;;;;18.50;99.90;;;;;;5074404;28;19908;-43
2023/09/07 03:08:52;;;;;;;;;;;18.40;99.90;;;;;;5073852;28;19923;-43
2023/09/07 03:11:17;;;;;;;;;;;18.40;99.90;;;;;;5073968;28;19924;-41
2023/09/07 03:13:43;;;;;;;;;;;18.40;99.90;;;;;;5074204;28;20030;-42
2023/09/07 03:16:08;;;;;;;;;;;18.40;99.90;;;;;;5074372;28;20022;-41
2023/09/07 03:18:34;;;;;;;;;;;18.40;99.90;;;;;;5074222;28;20261;-42
2023/09/07 03:21:01;;;;;;;;;;;18.40;99.90;;;;;;5074061;28;20398;-41
2023/09/07 03:23:30;;;;;;;;;;;18.30;99.90;;;;;;5056223;28;20331;-40
2023/09/07 03:25:56;;;;;;;;;;;18.30;99.90;;;;;;5074040;28;20351;-40
2023/09/07 03:28:22;;;;;;;;;;;18.30;99.90;;;;;;5074014;28;19944;-42
2023/09/07 03:30:47;;;;;;;;;;;18.30;99.90;;;;;;5073862;28;19966;-41
2023/09/07 03:33:13;;;;;;;;;;;18.20;99.90;;;;;;5073536;28;19919;-42
2023/09/07 03:35:40;;;;;;;;;;;18.20;99.90;;;;;;5072776;28;20007;-41
2023/09/07 03:38:06;;;;;;;;;;;18.10;99.90;;;;;;5073481;28;20367;-41
2023/09/07 03:40:31;;;;;;;;;;;18.10;99.90;;;;;;5073959;28;19951;-45
2023/09/07 03:42:57;;;;;;;;;;;18.10;99.90;;;;;;5073649;28;20268;-41
2023/09/07 03:45:22;;;;;;;;;;;18.00;99.90;;;;;;5073445;28;19978;-42
2023/09/07 03:47:48;;;;;;;;;;;18.00;99.90;;;;;;5073593;28;19915;-43
2023/09/07 03:50:13;;;;;;;;;;;18.00;99.90;;;;;;5073479;28;20370;-41
2023/09/07 03:52:39;;;;;;;;;;;18.00;99.90;;;;;;5073544;28;19909;-43
2023/09/07 03:55:05;;;;;;;;;;;18.00;99.90;;;;;;5073430;28;19917;-43
2023/09/07 03:57:30;;;;;;;;;;;17.90;99.90;;;;;;5073520;28;19932;-43
2023/09/07 03:59:56;;;;;;;;;;;18.00;99.90;;;;;;5073032;28;20298;-40
2023/09/07 04:02:22;;;;;;;;;;;17.90;99.90;;;;;;5072868;28;19919;-43
2023/09/07 04:04:51;;;;;;;;;;;17.90;99.90;;;;;;5073204;28;19968;-45
2023/09/07 04:07:17;;;;;;;;;;;17.90;99.90;;;;;;5073307;28;19915;-44
2023/09/07 04:09:43;;;;;;;;;;;17.90;99.90;;;;;;5073223;28;19913;-43
2023/09/07 04:12:09;;;;;;;;;;;17.80;99.90;;;;;;5073201;28;19908;-43
2023/09/07 04:14:35;;;;;;;;;;;17.80;99.90;;;;;;5073256;28;20440;-42
2023/09/07 04:17:00;;;;;;;;;;;17.80;99.90;;;;;;5073096;28;19909;-41
2023/09/07 04:19:26;;;;;;;;;;;17.80;99.90;;;;;;5073057;28;19958;-43
2023/09/07 04:21:51;;;;;;;;;;;17.80;99.90;;;;;;5073082;28;20350;-43
2023/09/07 04:24:17;;;;;;;;;;;17.70;99.90;;;;;;5072092;28;19920;-42
2023/09/07 04:26:42;;;;;;;;;;;17.70;99.90;;;;;;5058832;28;19913;-41
2023/09/07 04:29:08;;;;;;;;;;;17.70;99.90;;;;;;5068182;28;19912;-43
2023/09/07 04:31:34;;;;;;;;;;;17.70;99.90;;;;;;5072084;28;20402;-45
2023/09/07 04:34:00;;;;;;;;;;;17.70;99.90;;;;;;5065872;28;20003;-44
2023/09/07 04:36:25;;;;;;;;;;;17.70;99.90;;;;;;5062611;28;19963;-42
2023/09/07 04:38:51;;;;;;;;;;;17.70;99.90;;;;;;5072720;28;19913;-41
2023/09/07 04:41:16;;;;;;;;;;;17.70;99.90;;;;;;5072578;28;19931;-41
2023/09/07 04:43:45;;;;;;;;;;;17.60;99.90;;;;;;5071025;28;19920;-42
2023/09/07 04:46:11;;;;;;;;;;;17.60;99.90;;;;;;5072381;28;19912;-41
2023/09/07 04:48:37;;;;;;;;;;;17.60;99.90;;;;;;5061971;28;19991;-41
2023/09/07 04:51:03;;;;;;;;;;;17.60;99.90;;;;;;5056553;28;19927;-43
2023/09/07 04:53:30;;;;;;;;;;;17.60;99.90;;;;;;5052533;28;19913;-41
2023/09/07 04:55:56;;;;;;;;;;;17.60;99.90;;;;;;5067321;28;19915;-43
2023/09/07 04:58:22;;;;;;;;;;;17.50;99.90;;;;;;5072705;28;19912;-40
2023/09/07 05:00:47;;;;;;;;;;;17.60;99.90;;;;;;5072516;28;19962;-42
2023/09/07 05:03:13;;;;;;;;;;;17.60;99.90;;;;;;5065814;28;19909;-41
2023/09/07 05:05:38;;;;;;;;;;;17.60;99.90;;;;;;5060342;28;19966;-41
2023/09/07 05:08:04;;;;;;;;;;;17.50;99.90;;;;;;5071133;28;19920;-44
2023/09/07 05:10:33;;;;;;;;;;;17.50;99.90;;;;;;5072228;28;19916;-42
2023/09/07 05:12:58;;;;;;;;;;;17.50;99.90;;;;;;5071834;28;20385;-41
2023/09/07 05:15:24;;;;;;;;;;;17.50;99.90;;;;;;5072545;28;19999;-42
2023/09/07 05:17:49;;;;;;;;;;;17.50;99.90;;;;;;5071719;28;20280;-47
2023/09/07 05:20:15;;;;;;;;;;;17.50;99.90;;;;;;5067475;28;20007;-41
2023/09/07 05:22:41;;;;;;;;;;;17.50;99.90;;;;;;5070203;28;20375;-46
2023/09/07 05:25:06;;;;;;;;;;;17.50;99.90;;;;;;5071749;28;19948;-41
2023/09/07 05:27:33;;;;;;;;;;;17.50;99.90;;;;;;5072360;28;19919;-42
2023/09/07 05:29:59;;;;;;;;;;;17.50;99.90;;;;;;5071618;28;19912;-41
2023/09/07 05:32:24;;;;;;;;;;;17.50;99.90;;;;;;5071327;28;19912;-42
2023/09/07 05:34:50;;;;;;;;;;;17.50;99.90;;;;;;5070799;28;19924;-41
2023/09/07 05:37:15;;;;;;;;;;;17.50;99.90;;;;;;5071437;28;19913;-42
2023/09/07 05:39:41;;;;;;;;;;;17.50;99.90;;;;;;5072211;28;19909;-41
2023/09/07 05:42:06;;;;;;;;;;;17.40;99.90;;;;;;5072210;28;20337;-42
2023/09/07 05:44:31;;;;;;;;;;;17.50;99.90;;;;;;5071022;28;19920;-43
2023/09/07 05:46:58;;;;;;;;;;;17.50;99.90;;;;;;5071370;28;19919;-42
2023/09/07 05:49:24;;;;;;;;;;;17.50;99.90;;;;;;5070629;28;19913;-44
2023/09/07 05:51:49;;;;;;;;;;;17.50;99.90;;;;;;5071565;28;19917;-42
2023/09/07 05:54:15;;;;;;;;;;;17.60;99.90;;;;;;5070928;28;20015;-47
2023/09/07 05:56:40;;;;;;;;;;;17.60;99.90;;;;;;5071011;28;19913;-43
2023/09/07 05:59:06;;;;;;;;;;;17.60;99.90;;;;;;5071686;28;19913;-41
2023/09/07 06:01:31;;;;;;;;;;;17.60;99.90;;;;;;5075044;28;19912;-45
2023/09/07 06:03:58;;;;;;;;;;;17.60;99.90;;;;;;5069991;28;19913;-41
2023/09/07 06:06:23;;;;;;;;;;;17.70;99.90;;;;;;5075100;28;19908;-41
2023/09/07 06:08:49;;;;;;;;;;;17.70;99.90;;;;;;5073738;28;19999;-42
2023/09/07 06:11:14;;;;;;;;;;;17.70;99.90;;;;;;5075309;28;19917;-42
2023/09/07 06:13:41;;;;;;;;;;;17.70;99.90;;;;;;5075113;28;20370;-44
2023/09/07 06:16:06;;;;;;;;;;;17.80;99.90;;;;;;5074305;28;20430;-41
2023/09/07 06:18:32;;;;;;;;;;;17.80;99.90;;;;;;5074531;28;20012;-42
2023/09/07 06:20:57;;;;;;;;;;;17.90;99.90;;;;;;5074696;28;19919;-45
2023/09/07 06:23:23;;;;;;;;;;;17.90;99.90;;;;;;5074873;28;19919;-41
2023/09/07 06:25:49;;;;;;;;;;;18.00;99.90;;;;;;5074688;28;20054;-43
2023/09/07 06:28:14;;;;;;;;;;;18.00;99.90;;;;;;5074124;28;19912;-41
2023/09/07 06:30:40;;;;;;;;;;;18.10;99.90;;;;;;5067012;28;20123;-43
2023/09/07 06:33:05;;;;;;;;;;;18.10;99.90;;;;;;5054944;28;19916;-44
2023/09/07 06:35:31;;;;;;;;;;;18.20;99.90;;;;;;5074282;28;19946;-43
2023/09/07 06:37:56;;;;;;;;;;;18.30;99.90;;;;;;5067213;28;20322;-43
2023/09/07 06:40:22;;;;;;;;;;;18.30;99.90;;;;;;5059809;28;20370;-42
2023/09/07 06:42:47;;;;;;;;;;;18.40;99.90;;;;;;5073799;28;20006;-44
2023/09/07 06:45:13;;;;;;;;;;;18.40;99.90;;;;;;5069923;28;20296;-42
2023/09/07 06:47:39;;;;;;;;;;;18.50;99.90;;;;;;5074363;28;20003;-41
2023/09/07 06:50:05;;;;;;;;;;;18.50;99.90;;;;;;5074357;28;20022;-45
2023/09/07 06:52:30;;;;;;;;;;;18.60;99.90;;;;;;5074167;28;19913;-42
2023/09/07 06:54:56;;;;;;;;;;;18.60;99.90;;;;;;5074371;28;19917;-43
2023/09/07 06:57:21;;;;;;;;;;;18.70;99.90;;;;;;5074555;28;19908;-43
2023/09/07 06:59:47;;;;;;;;;;;18.80;99.90;;;;;;5074560;28;20003;-41
2023/09/07 07:02:12;;;;;;;;;;;18.80;99.90;;;;;;5074523;28;19909;-43
2023/09/07 07:04:38;;;;;;;;;;;18.90;99.90;;;;;;5074519;28;19912;-43
2023/09/07 07:07:04;;;;;;;;;;;18.90;99.90;;;;;;5068674;28;19919;-45
2023/09/07 07:09:30;;;;;;;;;;;19.10;99.90;;;;;;5074450;28;19915;-42
2023/09/07 07:11:56;;;;;;;;;;;19.10;99.90;;;;;;5073932;28;20016;-41
2023/09/07 07:14:21;;;;;;;;;;;19.20;99.90;;;;;;5074443;28;20016;-41
2023/09/07 07:16:47;;;;;;;;;;;19.30;99.90;;;;;;5066287;28;19913;-43
2023/09/07 07:19:12;;;;;;;;;;;19.40;99.90;;;;;;5064916;28;19912;-42
2023/09/07 07:21:38;;;;;;;;;;;19.40;99.90;;;;;;5062846;28;20004;-41
2023/09/07 07:24:06;;;;;;;;;;;19.50;99.90;;;;;;5054359;28;19915;-44
2023/09/07 07:26:32;;;;;;;;;;;19.60;99.90;;;;;;5069114;28;19965;-44
2023/09/07 07:28:57;;;;;;;;;;;19.70;99.90;;;;;;5055908;28;19978;-42
2023/09/07 07:31:23;;;;;;;;;;;19.80;99.90;;;;;;5065869;28;20060;-42
2023/09/07 07:33:48;;;;;;;;;;;19.90;99.90;;;;;;5053897;28;19912;-41
2023/09/07 07:36:14;;;;;;;;;;;20.00;99.90;;;;;;5064373;28;20441;-41
2023/09/07 07:38:40;;;;;;;;;;;20.10;99.90;;;;;;5073851;28;20423;-41
2023/09/07 07:41:05;;;;;;;;;;;20.20;99.90;;;;;;5073539;28;19915;-43
2023/09/07 07:43:32;;;;;;;;;;;20.20;99.90;;;;;;5066308;28;19913;-42
2023/09/07 07:45:59;;;;;;;;;;;20.30;99.90;;;;;;5064110;28;19924;-41
2023/09/07 07:48:25;;;;;;;;;;;20.40;99.90;;;;;;5073989;28;19908;-41
2023/09/07 07:50:51;;;;;;;;;;;20.50;99.90;;;;;;5073812;28;19916;-41
2023/09/07 07:53:16;;;;;;;;;;;20.60;99.90;;;;;;5070238;28;19908;-41
2023/09/07 07:55:42;;;;;;;;;;;20.70;99.90;;;;;;5059550;28;19974;-45
2023/09/07 07:58:08;;;;;;;;;;;20.80;99.90;;;;;;5060791;28;19912;-43
2023/09/07 08:00:35;;;;;;;;;;;20.80;99.90;;;;;;5066030;28;20372;-42
2023/09/07 08:03:02;;;;;;;;;;;21.00;99.90;;;;;;5052929;28;19909;-42
2023/09/07 08:05:28;;;;;;;;;;;21.00;99.90;;;;;;5052685;28;19959;-42
2023/09/07 08:07:54;;;;;;;;;;;21.10;99.90;;;;;;5069352;28;19908;-42
2023/09/07 08:10:20;;;;;;;;;;;21.20;99.90;;;;;;5093790;28;19920;-41
2023/09/07 08:12:45;;;;;;;;;;;21.30;99.90;;;;;;5093232;28;19951;-42
2023/09/07 08:15:11;;;;;;;;;;;21.40;99.90;;;;;;5093344;28;19923;-43
2023/09/07 08:17:37;;;;;;;;;;;21.50;99.90;;;;;;5093369;28;19907;-43
2023/09/07 08:20:03;;;;;;;;;;;21.60;99.90;;;;;;5075609;28;19924;-43
2023/09/07 08:22:28;;;;;;;;;;;21.70;99.90;;;;;;5073022;28;19917;-41
2023/09/07 08:24:55;;;;;;;;;;;21.70;99.90;;;;;;5073273;28;19962;-41
2023/09/07 08:27:21;;;;;;;;;;;21.80;99.90;;;;;;5073284;28;20395;-42
2023/09/07 08:29:48;;;;;;;;;;;21.90;99.90;;;;;;5073413;28;19908;-44
2023/09/07 08:32:14;;;;;;;;;;;22.00;99.90;;;;;;5073504;28;19954;-41
2023/09/07 08:34:41;;;;;;;;;;;22.10;99.90;;;;;;5073412;28;19908;-44
2023/09/07 08:37:08;;;;;;;;;;;22.20;99.90;;;;;;5072938;28;20309;-44
2023/09/07 08:39:34;;;;;;;;;;;22.30;99.90;;;;;;5053391;28;19939;-46
2023/09/07 08:42:00;;;;;;;;;;;22.30;99.90;;;;;;5071380;28;20340;-44
2023/09/07 08:44:26;;;;;;;;;;;22.40;99.90;;;;;;5091767;28;20333;-44
2023/09/07 08:46:52;;;;;;;;;;;22.50;99.90;;;;;;5092883;28;19908;-41
2023/09/07 08:49:23;;;;;;;;;;;22.60;99.90;;;;;;5073157;28;19912;-41
2023/09/07 08:51:49;;;;;;;;;;;22.70;99.90;;;;;;5072917;28;20387;-42
2023/09/07 08:54:15;;;;;;;;;;;22.80;99.90;;;;;;5073169;28;19920;-42
2023/09/07 08:56:40;;;;;;;;;;;22.80;99.90;;;;;;5072966;28;19908;-41
2023/09/07 08:59:06;;;;;;;;;;;22.90;99.90;;;;;;5072784;28;20481;-41
2023/09/07 09:01:31;;;;;;;;;;;23.00;99.90;;;;;;5073069;28;19960;-42
2023/09/07 09:03:57;;;;;;;;;;;23.10;99.90;;;;;;5072814;28;19919;-41
2023/09/07 09:06:23;;;;;;;;;;;23.10;99.90;;;;;;5072759;28;20416;-43
2023/09/07 09:08:49;;;;;;;;;;;23.20;99.90;;;;;;5072628;28;19917;-43
2023/09/07 09:11:16;;;;;;;;;;;23.30;99.90;;;;;;5072042;28;20344;-42
2023/09/07 09:13:42;;;;;;;;;;;23.40;99.90;;;;;;5072881;28;19916;-42
2023/09/07 09:16:07;;;;;;;;;;;23.50;99.90;;;;;;5072708;28;19908;-42
2023/09/07 09:18:33;;;;;;;;;;;23.60;99.90;;;;;;5073038;28;19912;-41
2023/09/07 09:20:59;;;;;;;;;;;23.70;99.90;;;;;;5073011;28;19917;-42
2023/09/07 09:23:44;;;;;;;;;;;23.80;99.90;;;;;;5072863;28;19916;-41
2023/09/07 09:26:10;;;;;;;;;;;23.90;99.90;;;;;;5071999;28;19908;-44
2023/09/07 09:28:36;;;;;;;;;;;24.00;99.90;;;;;;5072425;28;19916;-45
2023/09/07 09:31:02;;;;;;;;;;;24.10;99.90;;;;;;5072251;28;19927;-43
2023/09/07 09:33:30;;;;;;;;;;;24.20;99.90;;;;;;5072432;28;20007;-44
2023/09/07 09:35:56;;;;;;;;;;;24.20;99.90;;;;;;5075424;28;19915;-42
2023/09/07 09:38:22;;;;;;;;;;;24.40;99.90;;;;;;5076468;28;20525;-42
2023/09/07 09:40:47;;;;;;;;;;;24.40;99.90;;;;;;5076400;28;19909;-43
2023/09/07 09:43:13;;;;;;;;;;;24.50;99.90;;;;;;5076166;28;19913;-42
2023/09/07 09:45:39;;;;;;;;;;;24.60;99.90;;;;;;5076247;28;19989;-44
2023/09/07 09:48:08;;;;;;;;;;;24.70;99.90;;;;;;5075876;28;19999;-41
2023/09/07 09:50:38;;;;;;;;;;;24.80;99.90;;;;;;5075666;28;19967;-44
2023/09/07 09:53:07;;;;;;;;;;;24.80;99.90;;;;;;5076193;28;19912;-43
2023/09/07 09:55:32;;;;;;;;;;;24.90;99.90;;;;;;5076012;28;19915;-41
2023/09/07 09:57:58;;;;;;;;;;;25.00;99.90;;;;;;5076150;28;19909;-41
2023/09/07 10:00:26;;;;;;;;;;;25.10;99.90;;;;;;5075942;28;19909;-43
2023/09/07 10:03:03;;;;;;;;;;;25.20;99.90;;;;;;5075478;28;20310;-42
2023/09/07 10:05:30;;;;;;;;;;;25.30;99.90;;;;;;5076163;28;19978;-43
2023/09/07 10:08:01;;;;;;;;;;;25.40;99.90;;;;;;5076190;28;19954;-43
2023/09/07 10:10:31;;;;;;;;;;;25.50;99.90;;;;;;5075736;28;19921;-42
2023/09/07 10:12:56;;;;;;;;;;;25.60;99.90;;;;;;5075429;28;20347;-45
2023/09/07 10:15:22;;;;;;;;;;;25.60;99.90;;;;;;5075953;28;19923;-42
2023/09/07 10:17:50;;;;;;;;;;;25.80;99.90;;;;;;5075855;28;19908;-44
2023/09/07 10:32:57;;;;;;;;;;;25.90;99.90;;;;;;5130825;27;19923;-42
2023/09/07 10:35:25;;;;;;;;;;;26.30;99.90;;;;;;5130859;27;19951;-42
2023/09/07 10:37:51;;;;;;;;;;;26.40;99.90;;;;;;5113010;28;19965;-40
2023/09/07 10:40:21;;;;;;;;;;;26.50;99.90;;;;;;5126701;27;20434;-42
2023/09/07 10:42:46;;;;;;;;;;;26.50;99.90;;;;;;5125276;27;19924;-44
2023/09/07 10:45:15;;;;;;;;;;;26.50;99.90;;;;;;5125043;27;20000;-43
2023/09/07 10:47:45;;;;;;;;;;;26.60;99.90;;;;;;5126633;27;20391;-43
2023/09/07 10:50:14;;;;;;;;;;;26.80;99.90;;;;;;5129582;27;19911;-41
2023/09/07 10:52:41;;;;;;;;;;;26.80;99.90;;;;;;5131080;27;20349;-41
2023/09/07 10:55:07;;;;;;;;;;;27.00;99.90;;;;;;5120118;27;19923;-42
2023/09/07 10:57:40;;;;;;;;;;;27.00;99.90;;;;;;5119699;28;20005;-45
2023/09/07 11:00:10;;;;;;;;;;;27.10;99.90;;;;;;5129428;27;19911;-41
2023/09/07 11:02:39;;;;;;;;;;;27.20;99.90;;;;;;5127237;27;19918;-43
2023/09/07 11:05:05;;;;;;;;;;;27.30;99.90;;;;;;5109833;28;19912;-44
2023/09/07 11:07:31;;;;;;;;;;;27.30;99.90;;;;;;5109891;28;19969;-43
2023/09/07 11:09:56;;;;;;;;;;;27.40;99.90;;;;;;5109727;28;19916;-41
2023/09/07 11:12:22;;;;;;;;;;;27.50;99.90;;;;;;5110145;28;19908;-42
2023/09/07 11:14:50;;;;;;;;;;;27.60;99.90;;;;;;5109732;28;19908;-43
2023/09/07 11:17:16;;;;;;;;;;;27.70;99.90;;;;;;5109683;28;19990;-43
2023/09/07 11:19:41;;;;;;;;;;;27.70;99.90;;;;;;5114832;28;20329;-43
2023/09/07 11:22:10;;;;;;;;;;;27.80;99.90;;;;;;5121483;27;19916;-41
2023/09/07 11:24:36;;;;;;;;;;;27.90;99.90;;;;;;5130204;27;20998;-43
2023/09/07 11:27:02;;;;;;;;;;;28.00;99.90;;;;;;5129238;27;19907;-41
2023/09/07 11:29:30;;;;;;;;;;;28.10;99.90;;;;;;5127175;27;19912;-42
2023/09/07 11:32:05;;;;;;;;;;;28.10;99.90;;;;;;5110583;28;19919;-42
2023/09/07 11:34:30;;;;;;;;;;;28.10;99.90;;;;;;5098766;28;19908;-43
2023/09/07 11:36:56;;;;;;;;;;;28.20;99.90;;;;;;5108340;28;19927;-42
2023/09/07 11:39:21;;;;;;;;;;;28.20;99.90;;;;;;5108703;28;19908;-43
2023/09/07 11:41:47;;;;;;;;;;;28.20;99.90;;;;;;5101941;28;19919;-45
2023/09/07 11:44:12;;;;;;;;;;;28.30;99.90;;;;;;5099179;28;20399;-42
2023/09/07 11:46:38;;;;;;;;;;;28.30;99.90;;;;;;5096264;28;19908;-43
2023/09/07 11:49:06;;;;;;;;;;;28.40;99.90;;;;;;5105425;28;19943;-42
2023/09/07 11:51:32;;;;;;;;;;;28.40;99.90;;;;;;5101590;28;19908;-43
2023/09/07 11:53:58;;;;;;;;;;;28.30;99.90;;;;;;5096385;28;19908;-43
2023/09/07 11:56:24;;;;;;;;;;;28.40;99.90;;;;;;5096206;28;20393;-43
2023/09/07 11:58:49;;;;;;;;;;;28.50;99.90;;;;;;5112840;28;19964;-43
2023/09/07 12:01:16;;;;;;;;;;;28.50;99.90;;;;;;5111737;28;19973;-42
2023/09/07 12:03:42;;;;;;;;;;;28.60;99.90;;;;;;5114145;28;20342;-41
2023/09/07 12:06:08;;;;;;;;;;;28.60;99.90;;;;;;5115312;28;19916;-43
2023/09/07 12:08:33;;;;;;;;;;;28.60;99.00;;;;;;5115514;28;19964;-42
2023/09/07 12:10:59;;;;;;;;;;;28.70;99.90;;;;;;5113747;28;19934;-44
2023/09/07 12:13:26;;;;;;;;;;;28.70;99.90;;;;;;5097515;28;19991;-42
2023/09/07 12:15:51;;;;;;;;;;;28.70;99.90;;;;;;5104957;28;20003;-42
2023/09/07 12:18:17;;;;;;;;;;;28.80;99.90;;;;;;5114632;28;20069;-43
2023/09/07 12:20:44;;;;;;;;;;;28.80;99.90;;;;;;5115893;28;19930;-44
2023/09/07 12:23:10;;;;;;;;;;;28.90;99.90;;;;;;5115786;28;20337;-42
2023/09/07 12:25:36;;;;;;;;;;;28.90;99.90;;;;;;5115839;28;19915;-42
2023/09/07 12:28:02;;;;;;;;;;;28.90;99.90;;;;;;5115680;27;19995;-42
2023/09/07 12:30:28;;;;;;;;;;;29.00;99.90;;;;;;5114306;28;19965;-41
2023/09/07 12:32:53;;;;;;;;;;;29.10;99.90;;;;;;5115629;28;20311;-43
2023/09/07 12:35:20;;;;;;;;;;;29.10;99.90;;;;;;5106040;27;19912;-42
2023/09/07 12:37:46;;;;;;;;;;;29.10;99.90;;;;;;5115498;28;19950;-43
2023/09/07 12:40:15;;;;;;;;;;;29.20;99.70;;;;;;5114215;28;19952;-43
2023/09/07 12:42:41;;;;;;;;;;;29.30;99.90;;;;;;5115080;28;19912;-43
2023/09/07 12:45:07;;;;;;;;;;;29.40;99.90;;;;;;5113901;28;20569;-42
2023/09/07 12:47:33;;;;;;;;;;;29.50;99.00;;;;;;5115322;28;19956;-42
2023/09/07 12:49:58;;;;;;;;;;;29.60;99.90;;;;;;5114568;28;19912;-43
2023/09/07 12:52:24;;;;;;;;;;;29.70;99.60;;;;;;5115499;28;19912;-43
2023/09/07 12:54:49;;;;;;;;;;;29.90;99.10;;;;;;5115128;28;19929;-41
2023/09/07 12:57:15;;;;;;;;;;;30.20;99.60;;;;;;5114875;28;20350;-43
2023/09/07 12:59:40;;;;;;;;;;;30.40;98.80;;;;;;5096773;28;19915;-42
2023/09/07 13:02:06;;;;;;;;;;;30.50;98.90;;;;;;5114607;28;19986;-43
2023/09/07 13:04:31;;;;;;;;;;;30.70;98.10;;;;;;5114795;28;19912;-43
2023/09/07 13:06:57;;;;;;;;;;;30.80;98.30;;;;;;5114721;28;20360;-44
2023/09/07 13:09:22;;;;;;;;;;;31.00;97.30;;;;;;5114541;28;19958;-43
2023/09/07 13:11:48;;;;;;;;;;;31.20;97.80;;;;;;5114726;28;19907;-43
2023/09/07 13:14:13;;;;;;;;;;;31.40;96.50;;;;;;5114603;28;19912;-43
2023/09/07 13:16:39;;;;;;;;;;;31.70;97.30;;;;;;5114599;28;19915;-41
2023/09/07 13:19:05;;;;;;;;;;;31.90;96.00;;;;;;5113661;27;19916;-44
2023/09/07 13:21:30;;;;;;;;;;;32.20;96.20;;;;;;5114057;28;19915;-43
2023/09/07 13:23:56;;;;;;;;;;;32.40;95.50;;;;;;5114487;28;19911;-44
2023/09/07 13:26:21;;;;;;;;;;;32.60;94.90;;;;;;5113107;28;19955;-44
2023/09/07 13:28:47;;;;;;;;;;;32.80;94.80;;;;;;5105549;28;20416;-42
2023/09/07 13:31:13;;;;;;;;;;;32.90;93.20;;;;;;5108750;28;19924;-43
2023/09/07 13:33:38;;;;;;;;;;;33.10;93.80;;;;;;5114389;28;19930;-43
2023/09/07 13:36:04;;;;;;;;;;;33.20;94.20;;;;;;5114078;28;19981;-43
2023/09/07 13:38:29;;;;;;;;;;;33.40;93.40;;;;;;5113636;28;20457;-45
2023/09/07 13:40:54;;;;;;;;;;;33.60;93.10;;;;;;5113790;28;20281;-43
2023/09/07 13:43:20;;;;;;;;;;;33.70;92.90;;;;;;5114612;28;19951;-43
2023/09/07 13:45:45;;;;;;;;;;;33.90;92.70;;;;;;5114261;28;19912;-43
2023/09/07 13:48:11;;;;;;;;;;;34.00;91.50;;;;;;5113854;28;19954;-46
2023/09/07 13:50:36;;;;;;;;;;;34.10;91.70;;;;;;5113620;28;20259;-43
2023/09/07 13:53:02;;;;;;;;;;;34.30;90.70;;;;;;5108708;28;19919;-43
2023/09/07 13:55:28;;;;;;;;;;;34.50;89.50;;;;;;5113633;28;20266;-42
2023/09/07 13:57:54;;;;;;;;;;;34.50;90.10;;;;;;5114062;28;19908;-42
2023/09/07 14:00:19;;;;;;;;;;;34.60;90.20;;;;;;5112908;28;20354;-44
2023/09/07 14:02:45;;;;;;;;;;;34.70;88.00;;;;;;5112101;28;19914;-43
2023/09/07 14:05:10;;;;;;;;;;;34.80;86.40;;;;;;5105362;28;20361;-43
2023/09/07 14:07:36;;;;;;;;;;;34.90;84.70;;;;;;5114102;28;20249;-43
2023/09/07 14:10:01;;;;;;;;;;;35.00;85.60;;;;;;5113403;28;19912;-45
2023/09/07 14:12:27;;;;;;;;;;;35.20;83.60;;;;;;5114170;28;20014;-42
2023/09/07 14:14:52;;;;;;;;;;;35.30;83.10;;;;;;5113675;28;19915;-43
2023/09/07 14:17:18;;;;;;;;;;;35.40;83.40;;;;;;5113713;28;19912;-42
2023/09/07 14:19:45;;;;;;;;;;;35.70;84.40;;;;;;5112890;28;19912;-44
2023/09/07 14:22:11;;;;;;;;;;;35.90;78.50;;;;;;5113869;28;19915;-41